PWSweather.com
Personal Weather Stations
Station Observations
ABQWX
Albuquerque, NM 87110

Albuquerque, NM 87110

Lat: 35.1305, Lon: -106.58571

Elevation: 5210

Station Type: LaCrosse

http://www.albuquerqueweather.info/

High Low Average
Temperature 94.6°F34.8°F 62.6°F17.0°F 79.0°F26.1°F
Dew Point 47.4°F8.6°F 35.9°F2.2°F 44.0°F6.7°F
Winds 4.4 mph SSE7.1 mph SSE Calm Calm 1.8 mph 2.9 mph
Wind Gusts 8.7 mph14.0 mph -- 3.5 mph5.6 mph
Humidity 53% 13% 32%
Pressure 30.11 in1019.60 in 30.02 in1016.60 in -
Precipitation 0.00 in0.00 in - -
Hour Temp Dew Point Humidity Winds Wind Gusts Pressure Precip Precip Rate Daily Precip Total
12:00 AM 72.5°F22.5°C 46.1°F7.8°C 39% 1.2 mph E1.9 kmh E 2.5 mph4.0 kmh 30.03 in1016.9 mb 0.00 in0.0 mm 0.00 in/hr0.0 mm/hr 0.00 in0.0 mm
01:00 AM 70.2°F21.2°C 46.6°F8.1°C 43% 0.3 mph E0.5 kmh E 1.1 mph1.8 kmh 30.04 in1017.3 mb 0.00 in0.0 mm 0.00 in/hr0.0 mm/hr 0.00 in0.0 mm
02:00 AM 69.1°F20.6°C 47.4°F8.6°C 46% 0.9 mph E1.4 kmh E 2.0 mph3.2 kmh 30.04 in1017.3 mb 0.00 in0.0 mm 0.00 in/hr0.0 mm/hr 0.00 in0.0 mm
03:00 AM 67.6°F19.8°C 46.7°F8.2°C 47% Calm Calm -- 30.04 in1017.3 mb 0.00 in0.0 mm 0.00 in/hr0.0 mm/hr 0.00 in0.0 mm
04:00 AM 66.0°F18.9°C 45.8°F7.7°C 48% 0.5 mph E0.8 kmh E 0.9 mph1.4 kmh 30.06 in1017.9 mb 0.00 in0.0 mm 0.00 in/hr0.0 mm/hr 0.00 in0.0 mm
05:00 AM 65.1°F18.4°C 46.0°F7.8°C 50% 0.9 mph SW1.4 kmh SW 2.2 mph3.5 kmh 30.06 in1017.9 mb 0.00 in0.0 mm 0.00 in/hr0.0 mm/hr 0.00 in0.0 mm
06:00 AM 63.1°F17.3°C 45.7°F7.6°C 53% 0.3 mph NW0.5 kmh NW 1.1 mph1.8 kmh 30.07 in1018.3 mb 0.00 in0.0 mm 0.00 in/hr0.0 mm/hr 0.00 in0.0 mm
07:00 AM 62.6°F17.0°C 45.2°F7.3°C 53% Calm Calm -- 30.08 in1018.6 mb 0.00 in0.0 mm 0.00 in/hr0.0 mm/hr 0.00 in0.0 mm
08:00 AM 67.3°F19.6°C 46.4°F8.0°C 47% 1.2 mph NW1.9 kmh NW 2.2 mph3.5 kmh 30.10 in1019.3 mb 0.00 in0.0 mm 0.00 in/hr0.0 mm/hr 0.00 in0.0 mm
09:00 AM 73.6°F23.1°C 44.2°F6.8°C 35% 1.5 mph NE2.4 kmh NE 3.4 mph5.5 kmh 30.11 in1019.6 mb 0.00 in0.0 mm 0.00 in/hr0.0 mm/hr 0.00 in0.0 mm
10:00 AM 77.7°F25.4°C 42.9°F6.1°C 29% 2.8 mph NE4.5 kmh NE 5.1 mph8.2 kmh 30.11 in1019.6 mb 0.00 in0.0 mm 0.00 in/hr0.0 mm/hr 0.00 in0.0 mm
11:00 AM 83.8°F28.8°C 45.3°F7.4°C 26% 1.4 mph E2.3 kmh E 3.4 mph5.5 kmh 30.11 in1019.6 mb 0.00 in0.0 mm 0.00 in/hr0.0 mm/hr 0.00 in0.0 mm
12:00 PM 88.3°F31.3°C 45.8°F7.7°C 23% 1.7 mph WSW2.7 kmh WSW 4.0 mph6.4 kmh 30.09 in1019.0 mb 0.00 in0.0 mm 0.00 in/hr0.0 mm/hr 0.00 in0.0 mm
01:00 PM 89.2°F31.8°C 41.6°F5.3°C 19% 4.0 mph WSW6.4 kmh WSW 5.4 mph8.7 kmh 30.08 in1018.6 mb 0.00 in0.0 mm 0.00 in/hr0.0 mm/hr 0.00 in0.0 mm
02:00 PM 92.8°F33.8°C 45.9°F7.7°C 20% 4.1 mph SSE6.6 kmh SSE 6.9 mph11.1 kmh 30.06 in1017.9 mb 0.00 in0.0 mm 0.00 in/hr0.0 mm/hr 0.00 in0.0 mm
03:00 PM 92.1°F33.4°C 43.9°F6.6°C 19% 2.9 mph S4.7 kmh S 5.4 mph8.7 kmh 30.05 in1017.6 mb 0.00 in0.0 mm 0.00 in/hr0.0 mm/hr 0.00 in0.0 mm
04:00 PM 94.6°F34.8°C 44.6°F7.0°C 18% 3.6 mph SW5.8 kmh SW 6.3 mph10.1 kmh 30.04 in1017.3 mb 0.00 in0.0 mm 0.00 in/hr0.0 mm/hr 0.00 in0.0 mm
05:00 PM 94.3°F34.6°C 35.9°F2.2°C 13% 4.4 mph SSE7.1 kmh SSE 8.1 mph13.0 kmh 30.03 in1016.9 mb 0.00 in0.0 mm 0.00 in/hr0.0 mm/hr 0.00 in0.0 mm
06:00 PM 93.4°F34.1°C 40.5°F4.7°C 16% 3.6 mph SSW5.8 kmh SSW 6.7 mph10.8 kmh 30.02 in1016.6 mb 0.00 in0.0 mm 0.00 in/hr0.0 mm/hr 0.00 in0.0 mm
07:00 PM 89.2°F31.8°C 40.2°F4.6°C 18% 3.1 mph SSE5.0 kmh SSE 5.6 mph9.0 kmh 30.02 in1016.6 mb 0.00 in0.0 mm 0.00 in/hr0.0 mm/hr 0.00 in0.0 mm
08:00 PM 84.6°F29.2°C 41.5°F5.3°C 22% 0.4 mph ESE0.6 kmh ESE 0.9 mph1.4 kmh 30.03 in1016.9 mb 0.00 in0.0 mm 0.00 in/hr0.0 mm/hr 0.00 in0.0 mm
09:00 PM 81.3°F27.4°C 42.1°F5.6°C 25% 0.1 mph E0.2 kmh E 0.7 mph1.1 kmh 30.05 in1017.6 mb 0.00 in0.0 mm 0.00 in/hr0.0 mm/hr 0.00 in0.0 mm
10:00 PM 79.2°F26.2°C 43.2°F6.2°C 28% 0.5 mph ESE0.8 kmh ESE 1.1 mph1.8 kmh 30.06 in1017.9 mb 0.00 in0.0 mm 0.00 in/hr0.0 mm/hr 0.00 in0.0 mm
11:00 PM 78.3°F25.7°C 43.4°F6.3°C 29% 2.6 mph SSE4.2 kmh SSE 8.7 mph14.0 kmh 30.06 in1017.9 mb 0.00 in0.0 mm 0.00 in/hr0.0 mm/hr 0.00 in0.0 mm